createdAt,value
2017-03-04T00:00:54.216Z,0
2017-03-04T00:02:05.027Z,0
2017-03-04T00:03:20.084Z,0
2017-03-04T00:04:33.991Z,0
2017-03-04T00:05:47.671Z,0
2017-03-04T00:07:03.524Z,0
2017-03-04T00:08:19.507Z,0
2017-03-04T00:09:35.946Z,0
2017-03-04T00:10:50.895Z,0
2017-03-04T00:12:03.442Z,0
2017-03-04T00:13:17.823Z,0
2017-03-04T00:14:31.035Z,0
2017-03-04T00:15:40.041Z,0
2017-03-04T00:16:54.254Z,0
2017-03-04T00:18:08.542Z,0
2017-03-04T00:19:24.111Z,0
2017-03-04T00:20:38.331Z,0
2017-03-04T00:21:51.172Z,0
2017-03-04T00:23:07.087Z,0
2017-03-04T00:24:22.365Z,0
2017-03-04T00:25:33.560Z,0
2017-03-04T00:26:45.083Z,0
2017-03-04T00:27:54.947Z,0
2017-03-04T00:29:08.465Z,0
2017-03-04T00:30:19.644Z,0
2017-03-04T00:31:29.643Z,0
2017-03-04T00:32:42.958Z,0
2017-03-04T00:33:56.245Z,0
2017-03-04T00:35:06.484Z,0
2017-03-04T00:36:15.778Z,0
2017-03-04T00:37:24.772Z,0
2017-03-04T00:38:34.246Z,0
2017-03-04T00:39:43.245Z,0
2017-03-04T00:40:52.226Z,0
2017-03-04T00:42:01.543Z,0
2017-03-04T00:43:10.520Z,0
2017-03-04T00:44:19.913Z,0
2017-03-04T00:45:28.915Z,0
2017-03-04T00:46:37.909Z,0
2017-03-04T00:47:47.148Z,0
2017-03-04T00:48:56.977Z,0
2017-03-04T00:50:05.992Z,0
2017-03-04T00:51:14.977Z,0
2017-03-04T00:52:23.954Z,0
2017-03-04T00:53:33.180Z,0
2017-03-04T00:54:42.168Z,0
2017-03-04T00:55:51.152Z,0
2017-03-04T00:57:00.132Z,0
2017-03-04T00:58:09.224Z,0
2017-03-04T00:59:18.623Z,0
2017-03-04T01:00:27.625Z,0
2017-03-04T01:01:36.626Z,0
2017-03-04T01:02:46.037Z,0
2017-03-04T01:03:55.022Z,0
2017-03-04T01:05:04.719Z,0
2017-03-04T01:06:13.710Z,0
2017-03-04T01:07:22.819Z,0
2017-03-04T01:08:32.013Z,0
2017-03-04T01:09:40.994Z,0
2017-03-04T01:10:50.270Z,0
2017-03-04T01:11:59.266Z,0
2017-03-04T01:13:08.271Z,0
2017-03-04T01:14:17.346Z,0
2017-03-04T01:15:26.507Z,0
2017-03-04T01:16:35.808Z,0
2017-03-04T01:17:44.800Z,0
2017-03-04T01:18:53.778Z,0
2017-03-04T01:20:02.767Z,0
2017-03-04T01:21:11.744Z,0
2017-03-04T01:22:20.970Z,0
2017-03-04T01:23:29.947Z,0
2017-03-04T01:24:38.944Z,0
2017-03-04T01:25:48.020Z,0
2017-03-04T01:26:57.013Z,0
2017-03-04T01:28:06.340Z,0
2017-03-04T01:29:15.334Z,0
2017-03-04T01:30:24.328Z,0
2017-03-04T01:31:33.391Z,0
2017-03-04T01:32:42.399Z,0
2017-03-04T01:33:51.704Z,0
2017-03-04T01:35:01.086Z,0
2017-03-04T01:36:10.084Z,0
2017-03-04T01:37:19.111Z,0
2017-03-04T01:38:28.098Z,0
2017-03-04T01:39:37.381Z,0
2017-03-04T01:40:46.455Z,0
2017-03-04T01:41:55.434Z,0
2017-03-04T01:43:04.412Z,0
2017-03-04T01:44:13.803Z,0
2017-03-04T01:45:23.099Z,0
2017-03-04T01:46:32.115Z,0
2017-03-04T01:47:41.093Z,0
2017-03-04T01:48:50.170Z,0
2017-03-04T01:49:59.575Z,0
2017-03-04T01:51:08.817Z,0
2017-03-04T01:52:17.797Z,0
2017-03-04T01:53:26.785Z,0
2017-03-04T01:54:35.763Z,0
2017-03-04T01:55:44.853Z,0
2017-03-04T01:56:54.205Z,0
2017-03-04T01:58:03.196Z,0
2017-03-04T01:59:12.182Z,0
2017-03-04T02:00:21.579Z,0
2017-03-04T02:01:30.640Z,0
2017-03-04T02:02:40.031Z,0
2017-03-04T02:03:49.454Z,0
2017-03-04T02:04:58.466Z,0
2017-03-04T02:06:07.443Z,0
2017-03-04T02:07:16.434Z,0
2017-03-04T02:08:25.674Z,0
2017-03-04T02:09:34.648Z,0
2017-03-04T02:10:43.731Z,0
2017-03-04T02:11:52.739Z,0
2017-03-04T02:13:01.718Z,0
2017-03-04T02:14:11.007Z,0
2017-03-04T02:15:19.987Z,0
2017-03-04T02:16:28.961Z,0
2017-03-04T02:17:38.056Z,0
2017-03-04T02:18:47.050Z,0
2017-03-04T02:19:56.309Z,0
2017-03-04T02:21:05.419Z,0
2017-03-04T02:22:14.399Z,0
2017-03-04T02:23:23.392Z,0
2017-03-04T02:24:32.392Z,0
2017-03-04T02:25:41.662Z,0
2017-03-04T02:26:50.645Z,0
2017-03-04T02:27:59.624Z,0
2017-03-04T02:29:08.621Z,0
2017-03-04T02:30:17.605Z,0
2017-03-04T02:31:27.273Z,0
2017-03-04T02:32:36.683Z,0
2017-03-04T02:33:45.684Z,0
2017-03-04T02:34:54.709Z,0
2017-03-04T02:36:04.116Z,0
2017-03-04T02:37:13.407Z,0
2017-03-04T02:38:22.391Z,0
2017-03-04T02:39:31.392Z,0
2017-03-04T02:40:40.369Z,0
2017-03-04T02:41:49.350Z,0
2017-03-04T02:42:58.643Z,0
2017-03-04T02:44:07.748Z,0
2017-03-04T02:45:16.744Z,0
2017-03-04T02:46:25.757Z,0
2017-03-04T02:47:34.743Z,0
2017-03-04T02:48:44.108Z,0
2017-03-04T02:49:53.107Z,0
2017-03-04T02:51:02.167Z,0
2017-03-04T02:52:11.147Z,0
2017-03-04T02:53:20.164Z,0
2017-03-04T02:54:29.504Z,0
2017-03-04T02:55:38.490Z,0
2017-03-04T02:56:47.516Z,0
2017-03-04T02:57:56.511Z,0
2017-03-04T02:59:05.498Z,0
2017-03-04T03:00:14.775Z,0
2017-03-04T03:01:23.769Z,0
2017-03-04T03:02:32.755Z,0
2017-03-04T03:03:41.738Z,0
2017-03-04T03:04:50.727Z,0
2017-03-04T03:06:00.027Z,0
2017-03-04T03:07:09.024Z,0
2017-03-04T03:08:18.027Z,0
2017-03-04T03:09:27.035Z,0
2017-03-04T03:10:36.445Z,0
2017-03-04T03:11:45.767Z,0
2017-03-04T03:12:54.756Z,0
2017-03-04T03:14:03.743Z,0
2017-03-04T03:15:12.720Z,0
2017-03-04T03:16:21.794Z,0
2017-03-04T03:17:31.101Z,0
2017-03-04T03:18:40.101Z,0
2017-03-04T03:19:49.086Z,0
2017-03-04T03:20:58.062Z,0
2017-03-04T03:22:07.049Z,0
2017-03-04T03:23:16.327Z,0
2017-03-04T03:24:25.388Z,0
2017-03-04T03:25:34.378Z,0
2017-03-04T03:26:43.360Z,0
2017-03-04T03:27:52.371Z,0
2017-03-04T03:29:01.668Z,0
2017-03-04T03:30:11.067Z,0
2017-03-04T03:31:20.048Z,0
2017-03-04T03:32:29.047Z,0
2017-03-04T03:33:38.040Z,0
2017-03-04T03:34:47.322Z,0
2017-03-04T03:35:56.794Z,0
2017-03-04T03:37:05.788Z,0
2017-03-04T03:38:14.773Z,0
2017-03-04T03:39:23.755Z,0
2017-03-04T03:40:33.466Z,0
2017-03-04T03:41:42.464Z,0
2017-03-04T03:42:51.441Z,0
2017-03-04T03:44:00.521Z,0
2017-03-04T03:45:09.510Z,0
2017-03-04T03:46:18.818Z,0
2017-03-04T03:47:27.815Z,0
2017-03-04T03:48:36.793Z,0
2017-03-04T03:49:45.882Z,0
2017-03-04T03:50:54.951Z,0
2017-03-04T03:52:04.251Z,0
2017-03-04T03:53:13.261Z,0
2017-03-04T03:54:22.329Z,0
2017-03-04T03:55:31.311Z,0
2017-03-04T03:56:40.306Z,0
2017-03-04T03:57:49.542Z,0
2017-03-04T03:58:58.527Z,0
2017-03-04T04:00:07.516Z,0
2017-03-04T04:01:16.509Z,0
2017-03-04T04:02:25.999Z,0
2017-03-04T04:03:35.289Z,0
2017-03-04T04:04:44.269Z,0
2017-03-04T04:05:53.259Z,0
2017-03-04T04:07:02.284Z,0
2017-03-04T04:08:11.262Z,0
2017-03-04T04:09:20.650Z,0
2017-03-04T04:10:29.747Z,0
2017-03-04T04:11:38.748Z,0
2017-03-04T04:12:47.732Z,0
2017-03-04T04:13:56.721Z,0
2017-03-04T04:15:06.454Z,0
2017-03-04T04:16:15.532Z,0
2017-03-04T04:17:24.513Z,0
2017-03-04T04:18:33.488Z,0
2017-03-04T04:19:42.566Z,0
2017-03-04T04:20:51.845Z,0
2017-03-04T04:22:00.935Z,0
2017-03-04T04:23:10.017Z,0
2017-03-04T04:24:19.025Z,0
2017-03-04T04:25:28.432Z,0
2017-03-04T04:26:38.116Z,0
2017-03-04T04:27:47.097Z,0
2017-03-04T04:28:56.096Z,0
2017-03-04T04:30:05.088Z,0
2017-03-04T04:31:14.336Z,0
2017-03-04T04:32:23.617Z,0
2017-03-04T04:33:32.612Z,0
2017-03-04T04:34:41.608Z,0
2017-03-04T04:35:51.072Z,0
2017-03-04T04:37:00.056Z,0
2017-03-04T04:38:09.290Z,0
2017-03-04T04:39:18.295Z,0
2017-03-04T04:40:27.288Z,0
2017-03-04T04:41:36.277Z,0
2017-03-04T04:42:45.380Z,0
2017-03-04T04:43:54.613Z,0
2017-03-04T04:45:03.598Z,0
2017-03-04T04:46:12.584Z,0
2017-03-04T04:47:21.582Z,0
2017-03-04T04:48:30.561Z,0
2017-03-04T04:49:39.859Z,0
2017-03-04T04:50:48.852Z,0
2017-03-04T04:51:57.873Z,0
2017-03-04T04:53:06.855Z,0
2017-03-04T04:54:15.840Z,0
2017-03-04T04:55:25.121Z,0
2017-03-04T04:56:34.106Z,0
2017-03-04T04:57:43.099Z,0
2017-03-04T04:58:52.510Z,0
2017-03-04T05:00:01.514Z,0
2017-03-04T05:01:10.832Z,0
2017-03-04T05:02:19.809Z,0
2017-03-04T05:03:28.884Z,0
2017-03-04T05:04:38.284Z,0
2017-03-04T05:05:47.285Z,0
2017-03-04T05:06:56.666Z,0
2017-03-04T05:08:06.143Z,0
2017-03-04T05:09:15.173Z,0
2017-03-04T05:10:24.179Z,0
2017-03-04T05:11:33.183Z,0
2017-03-04T05:12:42.483Z,0
2017-03-04T05:13:51.472Z,0
2017-03-04T05:15:00.449Z,0
2017-03-04T05:16:09.443Z,0
2017-03-04T05:17:18.434Z,0
2017-03-04T05:18:27.693Z,0
2017-03-04T05:19:36.679Z,0
2017-03-04T05:20:45.686Z,0
2017-03-04T05:21:54.666Z,0
2017-03-04T05:23:04.073Z,0
2017-03-04T05:24:13.300Z,0
2017-03-04T05:25:22.308Z,4
2017-03-04T05:26:31.294Z,4
2017-03-04T05:27:40.274Z,0
2017-03-04T05:28:49.344Z,4
2017-03-04T05:29:58.634Z,4
2017-03-04T05:31:08.052Z,4
2017-03-04T05:32:17.038Z,8
2017-03-04T05:33:26.009Z,8
2017-03-04T05:34:35.069Z,8
2017-03-04T05:35:44.351Z,12
2017-03-04T05:36:53.430Z,12
2017-03-04T05:38:02.823Z,16
2017-03-04T05:39:11.821Z,16
2017-03-04T05:40:20.792Z,20
2017-03-04T05:41:30.634Z,20
2017-03-04T05:42:39.610Z,24
2017-03-04T05:43:48.602Z,24
2017-03-04T05:44:57.609Z,32
2017-03-04T05:46:06.604Z,36
2017-03-04T05:47:15.889Z,40
2017-03-04T05:48:24.909Z,40
2017-03-04T05:49:33.925Z,44
2017-03-04T05:50:42.931Z,48
2017-03-04T05:51:51.914Z,52
2017-03-04T05:53:01.158Z,60
2017-03-04T05:54:10.153Z,68
2017-03-04T05:55:19.136Z,72
2017-03-04T05:56:28.543Z,80
2017-03-04T05:57:37.532Z,88
2017-03-04T05:58:46.906Z,100
2017-03-04T05:59:55.882Z,112
2017-03-04T06:01:04.886Z,120
2017-03-04T06:02:13.875Z,128
2017-03-04T06:03:23.261Z,136
2017-03-04T06:04:32.553Z,148
2017-03-04T06:05:41.539Z,164
2017-03-04T06:06:50.530Z,176
2017-03-04T06:07:59.592Z,192
2017-03-04T06:09:08.570Z,208
2017-03-04T06:10:18.589Z,220
2017-03-04T06:11:27.580Z,244
2017-03-04T06:12:36.571Z,260
2017-03-04T06:13:45.569Z,276
2017-03-04T06:14:54.553Z,296
2017-03-04T06:16:03.788Z,312
2017-03-04T06:17:12.771Z,332
2017-03-04T06:18:21.761Z,344
2017-03-04T06:19:30.751Z,356
2017-03-04T06:20:39.764Z,368
2017-03-04T06:21:49.410Z,376
2017-03-04T06:22:58.392Z,388
2017-03-04T06:24:07.377Z,416
2017-03-04T06:25:16.386Z,444
2017-03-04T06:26:25.362Z,472
2017-03-04T06:27:34.661Z,492
2017-03-04T06:28:43.750Z,508
2017-03-04T06:29:52.820Z,532
2017-03-04T06:31:01.822Z,552
2017-03-04T06:32:10.795Z,572
2017-03-04T06:33:20.038Z,596
2017-03-04T06:34:29.103Z,608
2017-03-04T06:35:38.097Z,616
2017-03-04T06:36:47.083Z,624
2017-03-04T06:37:56.064Z,652
2017-03-04T06:39:05.761Z,688
2017-03-04T06:40:14.752Z,708
2017-03-04T06:41:23.744Z,716
2017-03-04T06:42:32.910Z,736
2017-03-04T06:43:41.911Z,760
2017-03-04T06:44:51.137Z,776
2017-03-04T06:46:00.116Z,792
2017-03-04T06:47:09.512Z,820
2017-03-04T06:48:19.093Z,848
2017-03-04T06:49:28.487Z,880
2017-03-04T06:50:37.716Z,920
2017-03-04T06:51:46.873Z,972
2017-03-04T06:52:55.854Z,1024
2017-03-04T06:54:04.831Z,1064
2017-03-04T06:55:13.912Z,1080
2017-03-04T06:56:23.191Z,1100
2017-03-04T06:57:32.185Z,1108
2017-03-04T06:58:41.583Z,1132
2017-03-04T06:59:50.974Z,1160
2017-03-04T07:01:00.383Z,1188
2017-03-04T07:02:09.673Z,1224
2017-03-04T07:03:18.650Z,1240
2017-03-04T07:04:27.831Z,1256
2017-03-04T07:05:37.247Z,1272
2017-03-04T07:06:46.248Z,1304
2017-03-04T07:07:55.523Z,1332
2017-03-04T07:09:04.518Z,1372
2017-03-04T07:10:13.515Z,1380
2017-03-04T07:11:22.901Z,1400
2017-03-04T07:12:31.894Z,1432
2017-03-04T07:13:41.123Z,1464
2017-03-04T07:14:50.110Z,1492
2017-03-04T07:15:59.191Z,1492
2017-03-04T07:17:08.175Z,1504
2017-03-04T07:18:17.157Z,1524
2017-03-04T07:19:26.454Z,1536
2017-03-04T07:20:35.496Z,1544
2017-03-04T07:21:44.474Z,1556
2017-03-04T07:22:53.456Z,1580
2017-03-04T07:24:02.445Z,1608
2017-03-04T07:25:11.782Z,1640
2017-03-04T07:26:20.820Z,1664
2017-03-04T07:27:29.801Z,1668
2017-03-04T07:28:38.828Z,1672
2017-03-04T07:29:47.812Z,1672
2017-03-04T07:30:57.067Z,1684
2017-03-04T07:32:06.073Z,1708
2017-03-04T07:33:15.686Z,1736
2017-03-04T07:34:24.684Z,1740
2017-03-04T07:35:33.694Z,1732
2017-03-04T07:36:43.172Z,1724
2017-03-04T07:37:52.158Z,1732
2017-03-04T07:39:01.328Z,1760
2017-03-04T07:40:10.314Z,1792
2017-03-04T07:41:19.389Z,1816
2017-03-04T07:42:29.226Z,1836
2017-03-04T07:43:38.205Z,1812
2017-03-04T07:44:47.191Z,1776
2017-03-04T07:45:56.191Z,1736
2017-03-04T07:47:05.189Z,1720
2017-03-04T07:48:14.566Z,1724
2017-03-04T07:49:23.547Z,1728
2017-03-04T07:50:32.554Z,1740
2017-03-04T07:51:41.548Z,1740
2017-03-04T07:52:50.534Z,1736
2017-03-04T07:53:59.822Z,1752
2017-03-04T07:55:08.797Z,1772
2017-03-04T07:56:17.780Z,1800
2017-03-04T07:57:26.825Z,1832
2017-03-04T07:58:35.864Z,1856
2017-03-04T07:59:45.266Z,1864
2017-03-04T08:00:54.247Z,1872
2017-03-04T08:02:03.328Z,1904
2017-03-04T08:03:12.820Z,1936
2017-03-04T08:04:21.840Z,1960
2017-03-04T08:05:31.090Z,1964
2017-03-04T08:06:40.528Z,1976
2017-03-04T08:07:49.539Z,1976
2017-03-04T08:08:58.665Z,1980
2017-03-04T08:10:07.689Z,1988
2017-03-04T08:11:17.167Z,1996
2017-03-04T08:12:26.306Z,2012
2017-03-04T08:13:35.332Z,2048
2017-03-04T08:14:44.650Z,2076
2017-03-04T08:15:53.755Z,2096
2017-03-04T08:17:03.159Z,2096
2017-03-04T08:18:12.159Z,2096
2017-03-04T08:19:21.458Z,2096
2017-03-04T08:20:30.461Z,2120
2017-03-04T08:21:39.649Z,2148
2017-03-04T08:22:48.937Z,2168
2017-03-04T08:23:57.936Z,2200
2017-03-04T08:25:06.995Z,2220
2017-03-04T08:26:16.004Z,2256
2017-03-04T08:27:25.000Z,2296
2017-03-04T08:28:34.447Z,2380
2017-03-04T08:29:43.839Z,2448
2017-03-04T08:30:53.176Z,2488
2017-03-04T08:32:02.594Z,2516
2017-03-04T08:33:11.930Z,2540
2017-03-04T08:34:21.317Z,2568
2017-03-04T08:35:30.401Z,2576
2017-03-04T08:36:39.565Z,2580
2017-03-04T08:37:48.543Z,2588
2017-03-04T08:38:57.778Z,2592
2017-03-04T08:40:07.086Z,2628
2017-03-04T08:41:16.129Z,2640
2017-03-04T08:42:25.245Z,2656
2017-03-04T08:43:34.256Z,2724
2017-03-04T08:44:43.415Z,2764
2017-03-04T08:45:52.817Z,2788
2017-03-04T08:47:01.796Z,2824
2017-03-04T08:48:10.959Z,2876
2017-03-04T08:49:20.000Z,2952
2017-03-04T08:50:28.988Z,3024
2017-03-04T08:51:38.273Z,3080
2017-03-04T08:52:47.272Z,3116
2017-03-04T08:53:56.367Z,3152
2017-03-04T08:55:05.373Z,3176
2017-03-04T08:56:14.437Z,3200
2017-03-04T08:57:23.732Z,3156
2017-03-04T08:58:32.708Z,3160
2017-03-04T08:59:41.699Z,3156
2017-03-04T09:00:50.832Z,3196
2017-03-04T09:01:59.823Z,3176
2017-03-04T09:03:09.091Z,3140
2017-03-04T09:04:18.084Z,3084
2017-03-04T09:05:27.306Z,3060
2017-03-04T09:06:36.299Z,3044
2017-03-04T09:07:45.666Z,2980
2017-03-04T09:08:55.081Z,2928
2017-03-04T09:10:04.481Z,2880
2017-03-04T09:11:13.865Z,2836
2017-03-04T09:12:22.948Z,2824
2017-03-04T09:13:32.011Z,2820
2017-03-04T09:14:41.419Z,2792
2017-03-04T09:15:50.413Z,2788
2017-03-04T09:16:59.398Z,2752
2017-03-04T09:18:08.393Z,2708
2017-03-04T09:19:17.444Z,2696
2017-03-04T09:20:26.870Z,2656
2017-03-04T09:21:35.938Z,2668
2017-03-04T09:22:45.381Z,2636
2017-03-04T09:23:54.365Z,2544
2017-03-04T09:25:03.954Z,2548
2017-03-04T09:26:13.525Z,2548
2017-03-04T09:27:22.527Z,2552
2017-03-04T09:28:31.630Z,2592
2017-03-04T09:29:40.611Z,2640
2017-03-04T09:30:49.600Z,2700
2017-03-04T09:31:59.321Z,2732
2017-03-04T09:33:08.397Z,2748
2017-03-04T09:34:17.378Z,2704
2017-03-04T09:35:26.432Z,2664
2017-03-04T09:36:35.641Z,2648
2017-03-04T09:37:45.045Z,2592
2017-03-04T09:38:54.084Z,2552
2017-03-04T09:40:03.203Z,2484
2017-03-04T09:41:12.301Z,2408
2017-03-04T09:42:21.356Z,2288
2017-03-04T09:43:31.071Z,2276
2017-03-04T09:44:40.069Z,2256
2017-03-04T09:45:49.345Z,2232
2017-03-04T09:46:58.398Z,2204
2017-03-04T09:48:07.381Z,2208
2017-03-04T09:49:16.729Z,2184
2017-03-04T09:50:26.122Z,2172
2017-03-04T09:51:35.346Z,2192
2017-03-04T09:52:44.391Z,2176
2017-03-04T09:53:53.380Z,2192
2017-03-04T09:55:02.612Z,2228
2017-03-04T09:56:11.699Z,2224
2017-03-04T09:57:20.704Z,2204
2017-03-04T09:58:30.109Z,2156
2017-03-04T09:59:39.094Z,2008
2017-03-04T10:00:48.409Z,1972
2017-03-04T10:01:57.402Z,2000
2017-03-04T10:03:06.481Z,1948
2017-03-04T10:04:15.493Z,1904
2017-03-04T10:05:24.489Z,1844
2017-03-04T10:06:33.793Z,1832
2017-03-04T10:07:42.802Z,1812
2017-03-04T10:08:52.202Z,1808
2017-03-04T10:10:01.196Z,1804
2017-03-04T10:11:10.188Z,1772
2017-03-04T10:12:19.480Z,1744
2017-03-04T10:13:28.881Z,1744
2017-03-04T10:14:37.884Z,1756
2017-03-04T10:15:47.375Z,1764
2017-03-04T10:16:56.493Z,1760
2017-03-04T10:18:05.775Z,1708
2017-03-04T10:19:14.779Z,1684
2017-03-04T10:20:23.769Z,1608
2017-03-04T10:21:32.854Z,1572
2017-03-04T10:22:41.837Z,1580
2017-03-04T10:23:51.223Z,1580
2017-03-04T10:25:00.213Z,1628
2017-03-04T10:26:09.608Z,1628
2017-03-04T10:27:18.604Z,1632
2017-03-04T10:28:27.608Z,1560
2017-03-04T10:29:36.849Z,1564
2017-03-04T10:30:45.866Z,1712
2017-03-04T10:31:54.858Z,1716
2017-03-04T10:33:03.850Z,1696
2017-03-04T10:34:12.845Z,1680
2017-03-04T10:35:22.143Z,1672
2017-03-04T10:36:31.155Z,1668
2017-03-04T10:37:40.145Z,1640
2017-03-04T10:38:49.119Z,1632
2017-03-04T10:39:58.100Z,1596
2017-03-04T10:41:07.751Z,1612
2017-03-04T10:42:16.744Z,1580
2017-03-04T10:43:25.744Z,1636
2017-03-04T10:44:34.723Z,1632
2017-03-04T10:45:43.824Z,1644
2017-03-04T10:46:53.101Z,1640
2017-03-04T10:48:02.093Z,1640
2017-03-04T10:49:11.071Z,1684
2017-03-04T10:50:20.061Z,1696
2017-03-04T10:51:29.045Z,1744
2017-03-04T10:52:38.337Z,1744
2017-03-04T10:53:47.352Z,1748
2017-03-04T10:54:56.328Z,1740
2017-03-04T10:56:05.326Z,1784
2017-03-04T10:57:14.305Z,1804
2017-03-04T10:58:23.743Z,1820
2017-03-04T10:59:32.803Z,1800
2017-03-04T11:00:41.804Z,1824
2017-03-04T11:01:50.800Z,1812
2017-03-04T11:02:59.811Z,1824
2017-03-04T11:04:09.499Z,1804
2017-03-04T11:05:18.484Z,1768
2017-03-04T11:06:27.492Z,1768
2017-03-04T11:07:36.488Z,1780
2017-03-04T11:08:45.568Z,1768
2017-03-04T11:09:54.959Z,1796
2017-03-04T11:11:04.374Z,1800
2017-03-04T11:12:13.393Z,1816
2017-03-04T11:13:22.386Z,1828
2017-03-04T11:14:31.383Z,1760
2017-03-04T11:15:40.670Z,1724
2017-03-04T11:16:49.835Z,1744
2017-03-04T11:17:59.239Z,1740
2017-03-04T11:19:08.232Z,1708
2017-03-04T11:20:17.211Z,1788
2017-03-04T11:21:26.510Z,1780
2017-03-04T11:22:35.519Z,1756
2017-03-04T11:23:44.533Z,1764
2017-03-04T11:24:53.531Z,1716
2017-03-04T11:26:02.526Z,1596
2017-03-04T11:27:11.816Z,1664
2017-03-04T11:28:20.810Z,1748
2017-03-04T11:29:29.796Z,1744
2017-03-04T11:30:38.788Z,1764
2017-03-04T11:31:47.868Z,1796
2017-03-04T11:32:57.190Z,1676
2017-03-04T11:34:06.575Z,1620
2017-03-04T11:35:15.557Z,1708
2017-03-04T11:36:24.543Z,1756
2017-03-04T11:37:33.630Z,1740
2017-03-04T11:38:42.877Z,1616
2017-03-04T11:39:51.873Z,1652
2017-03-04T11:41:00.903Z,1596
2017-03-04T11:42:09.900Z,1596
2017-03-04T11:43:18.913Z,1576
2017-03-04T11:44:28.203Z,1576
2017-03-04T11:45:37.183Z,1500
2017-03-04T11:46:46.174Z,1560
2017-03-04T11:47:55.591Z,1600
2017-03-04T11:49:04.593Z,1620
2017-03-04T11:50:13.918Z,1616
2017-03-04T11:51:22.930Z,1640
2017-03-04T11:52:31.936Z,1716
2017-03-04T11:53:41.336Z,1804
2017-03-04T11:54:50.336Z,1796
2017-03-04T11:55:59.624Z,1788
2017-03-04T11:57:08.647Z,1744
2017-03-04T11:58:17.640Z,1788
2017-03-04T11:59:26.755Z,1776
2017-03-04T12:00:35.772Z,1744
2017-03-04T12:01:45.108Z,1816
2017-03-04T12:02:54.499Z,1932
2017-03-04T12:04:03.487Z,2072
2017-03-04T12:05:12.576Z,2284
2017-03-04T12:06:21.984Z,2344
2017-03-04T12:07:31.220Z,2512
2017-03-04T12:08:40.314Z,2584
2017-03-04T12:09:49.312Z,2608
2017-03-04T12:10:58.301Z,2628
2017-03-04T12:12:07.275Z,2592
2017-03-04T12:13:16.561Z,2696
2017-03-04T12:14:25.997Z,2804
2017-03-04T12:15:34.998Z,2844
2017-03-04T12:16:43.999Z,2868
2017-03-04T12:17:52.984Z,2832
2017-03-04T12:19:02.379Z,2760
2017-03-04T12:20:11.373Z,2516
2017-03-04T12:21:20.374Z,2404
2017-03-04T12:22:29.377Z,2328
2017-03-04T12:23:38.401Z,2260
2017-03-04T12:24:48.101Z,2220
2017-03-04T12:25:57.084Z,2176
2017-03-04T12:27:06.066Z,2152
2017-03-04T12:28:15.058Z,2076
2017-03-04T12:29:24.042Z,2036
2017-03-04T12:30:33.339Z,2092
2017-03-04T12:31:42.422Z,2072
2017-03-04T12:32:51.434Z,2048
2017-03-04T12:34:00.844Z,2028
2017-03-04T12:35:09.838Z,2024
2017-03-04T12:36:19.292Z,2008
2017-03-04T12:37:28.274Z,2016
2017-03-04T12:38:37.687Z,1992
2017-03-04T12:39:46.683Z,1956
2017-03-04T12:40:55.688Z,1920
2017-03-04T12:42:05.413Z,1936
2017-03-04T12:43:14.412Z,1940
2017-03-04T12:44:23.810Z,1912
2017-03-04T12:45:32.899Z,1868
2017-03-04T12:46:41.887Z,1860
2017-03-04T12:47:51.181Z,1836
2017-03-04T12:49:00.265Z,1824
2017-03-04T12:50:09.268Z,1820
2017-03-04T12:51:18.301Z,1800
2017-03-04T12:52:27.286Z,1780
2017-03-04T12:53:36.574Z,1776
2017-03-04T12:54:45.607Z,1728
2017-03-04T12:55:54.599Z,1728
2017-03-04T12:57:03.679Z,1668
2017-03-04T12:58:12.658Z,1684
2017-03-04T12:59:21.953Z,1672
2017-03-04T13:00:31.069Z,1712
2017-03-04T13:01:40.060Z,1736
2017-03-04T13:02:49.088Z,1760
2017-03-04T13:03:58.067Z,1768
2017-03-04T13:05:07.327Z,1784
2017-03-04T13:06:16.365Z,1772
2017-03-04T13:07:25.439Z,1752
2017-03-04T13:08:34.430Z,1760
2017-03-04T13:09:43.415Z,1760
2017-03-04T13:10:52.715Z,1744
2017-03-04T13:12:01.698Z,1756
2017-03-04T13:13:11.111Z,1764
2017-03-04T13:14:20.108Z,1784
2017-03-04T13:15:29.086Z,1800
2017-03-04T13:16:38.396Z,1780
2017-03-04T13:17:47.787Z,1812
2017-03-04T13:18:56.791Z,1836
2017-03-04T13:20:05.887Z,1840
2017-03-04T13:21:14.955Z,1864
2017-03-04T13:22:24.237Z,1880
2017-03-04T13:23:33.236Z,1892
2017-03-04T13:24:42.228Z,1924
2017-03-04T13:25:51.315Z,1940
2017-03-04T13:27:00.485Z,1948
2017-03-04T13:28:09.804Z,1944
2017-03-04T13:29:18.876Z,1896
2017-03-04T13:30:27.874Z,1884
2017-03-04T13:31:36.870Z,1872
2017-03-04T13:32:45.950Z,1848
2017-03-04T13:33:55.252Z,1808
2017-03-04T13:35:04.245Z,1784
2017-03-04T13:36:13.224Z,1776
2017-03-04T13:37:22.222Z,1772
2017-03-04T13:38:31.205Z,1768
2017-03-04T13:39:40.680Z,1780
2017-03-04T13:40:49.673Z,1744
2017-03-04T13:41:58.667Z,1696
2017-03-04T13:43:08.120Z,1672
2017-03-04T13:44:17.103Z,1672
2017-03-04T13:45:26.413Z,1680
2017-03-04T13:46:35.420Z,1656
2017-03-04T13:47:44.419Z,1660
2017-03-04T13:48:53.421Z,1624
2017-03-04T13:50:02.405Z,1548
2017-03-04T13:51:11.698Z,1568
2017-03-04T13:52:20.705Z,1556
2017-03-04T13:53:29.703Z,1512
2017-03-04T13:54:38.690Z,1472
2017-03-04T13:55:47.769Z,1456
2017-03-04T13:56:57.058Z,1464
2017-03-04T13:58:06.064Z,1448
2017-03-04T13:59:15.049Z,1444
2017-03-04T14:00:24.049Z,1444
2017-03-04T14:01:33.061Z,1420
2017-03-04T14:02:42.393Z,1424
2017-03-04T14:03:51.471Z,1412
2017-03-04T14:05:00.484Z,1432
2017-03-04T14:06:09.488Z,1452
2017-03-04T14:07:18.583Z,1488
2017-03-04T14:08:27.870Z,1496
2017-03-04T14:09:36.853Z,1512
2017-03-04T14:10:45.934Z,1544
2017-03-04T14:11:54.940Z,1584
2017-03-04T14:13:03.926Z,1624
2017-03-04T14:14:13.217Z,1652
2017-03-04T14:15:22.216Z,1680
2017-03-04T14:16:31.204Z,1696
2017-03-04T14:17:40.218Z,1704
2017-03-04T14:18:49.224Z,1720
2017-03-04T14:19:58.518Z,1700
2017-03-04T14:21:07.596Z,1688
2017-03-04T14:22:16.585Z,1688
2017-03-04T14:23:25.996Z,1696
2017-03-04T14:24:34.998Z,1700
2017-03-04T14:25:44.333Z,1692
2017-03-04T14:26:53.339Z,1668
2017-03-04T14:28:02.334Z,1664
2017-03-04T14:29:11.333Z,1656
2017-03-04T14:30:20.322Z,1640
2017-03-04T14:31:29.612Z,1632
2017-03-04T14:32:38.606Z,1624
2017-03-04T14:33:47.600Z,1604
2017-03-04T14:34:56.597Z,1572
2017-03-04T14:36:05.676Z,1544
2017-03-04T14:37:14.926Z,1496
2017-03-04T14:38:23.932Z,1448
2017-03-04T14:39:32.918Z,1420
2017-03-04T14:40:41.937Z,1416
2017-03-04T14:41:50.958Z,1420
2017-03-04T14:43:00.294Z,1408
2017-03-04T14:44:09.277Z,1384
2017-03-04T14:45:18.364Z,1376
2017-03-04T14:46:27.437Z,1376
2017-03-04T14:47:36.447Z,1364
2017-03-04T14:48:45.746Z,1344
2017-03-04T14:49:54.916Z,1312
2017-03-04T14:51:03.930Z,1280
2017-03-04T14:52:13.017Z,1236
2017-03-04T14:53:22.018Z,1212
2017-03-04T14:54:31.324Z,1168
2017-03-04T14:55:40.324Z,1140
2017-03-04T14:56:49.330Z,1104
2017-03-04T14:57:59.173Z,1068
2017-03-04T14:59:08.176Z,1036
2017-03-04T15:00:17.583Z,1004
2017-03-04T15:01:26.673Z,980
2017-03-04T15:02:35.662Z,960
2017-03-04T15:03:44.669Z,948
2017-03-04T15:04:53.663Z,936
2017-03-04T15:06:02.963Z,936
2017-03-04T15:07:11.972Z,924
2017-03-04T15:08:20.947Z,916
2017-03-04T15:09:29.943Z,912
2017-03-04T15:10:38.940Z,912
2017-03-04T15:11:48.241Z,916
2017-03-04T15:12:57.336Z,920
2017-03-04T15:14:06.355Z,932
2017-03-04T15:15:15.357Z,940
2017-03-04T15:16:24.430Z,948
2017-03-04T15:17:33.735Z,952
2017-03-04T15:18:42.731Z,956
2017-03-04T15:19:51.721Z,952
2017-03-04T15:21:00.742Z,944
2017-03-04T15:22:09.743Z,936
2017-03-04T15:23:19.309Z,924
2017-03-04T15:24:28.311Z,924
2017-03-04T15:25:37.302Z,920
2017-03-04T15:26:46.407Z,912
2017-03-04T15:27:55.507Z,908
2017-03-04T15:29:04.889Z,900
2017-03-04T15:30:13.978Z,892
2017-03-04T15:31:22.970Z,880
2017-03-04T15:32:31.970Z,868
2017-03-04T15:33:40.968Z,860
2017-03-04T15:34:50.780Z,852
2017-03-04T15:35:59.779Z,840
2017-03-04T15:37:08.772Z,820
2017-03-04T15:38:17.759Z,808
2017-03-04T15:39:26.827Z,796
2017-03-04T15:40:36.195Z,784
2017-03-04T15:41:45.280Z,768
2017-03-04T15:42:54.302Z,760
2017-03-04T15:44:03.291Z,752
2017-03-04T15:45:12.291Z,736
2017-03-04T15:46:21.745Z,724
2017-03-04T15:47:30.744Z,708
2017-03-04T15:48:39.762Z,688
2017-03-04T15:49:48.855Z,676
2017-03-04T15:50:57.858Z,664
2017-03-04T15:52:07.164Z,648
2017-03-04T15:53:16.146Z,632
2017-03-04T15:54:25.255Z,620
2017-03-04T15:55:34.237Z,604
2017-03-04T15:56:43.232Z,588
2017-03-04T15:57:52.496Z,576
2017-03-04T15:59:01.493Z,568
2017-03-04T16:00:10.904Z,556
2017-03-04T16:01:19.997Z,528